Terminal Aerodrome Forecast
Issued by NWS Caribou, ME

Home | Current Version | Previous Version | Text Only | Print | Product List | Glossary On
Versions: 1 2 3 4 5 6 7 8 9 10 11 12 13 14 15 16 17 18 19 20
000
FTUS41 KCAR 302344
TAFBGR
TAF
KBGR 302344Z 0100/0124 18006KT P6SM BKN250
     FM010400 17004KT 3SM BR SCT003 BKN100
     FM010600 VRB03KT 1 1/2SM BR BKN002
     FM010800 VRB03KT 1/2SM FG BKN003
     FM011000 16005KT 6SM BR SCT003 OVC007
     FM011200 16009KT P6SM BKN200
     FM011800 16008KT P6SM -SHRA OVC040=

USA.gov is the U.S. government's official web portal to all federal, state and local government web resources and services.